sensor_id;sensor_type;location;lat;lon;timestamp;P1;durP1;ratioP1;P2;durP2;ratioP2
18042;SDS011;9146;48.074;11.968;2023-07-20T00:00:19;4.90;;;4.23;;
18042;SDS011;9146;48.074;11.968;2023-07-20T00:02:49;9.80;;;5.30;;
18042;SDS011;9146;48.074;11.968;2023-07-20T00:05:17;5.80;;;4.63;;
18042;SDS011;9146;48.074;11.968;2023-07-20T00:07:46;7.00;;;5.40;;
18042;SDS011;9146;48.074;11.968;2023-07-20T00:10:17;12.93;;;5.97;;
18042;SDS011;9146;48.074;11.968;2023-07-20T00:12:44;5.87;;;5.00;;
18042;SDS011;9146;48.074;11.968;2023-07-20T00:15:12;6.57;;;5.87;;
18042;SDS011;9146;48.074;11.968;2023-07-20T00:17:41;6.53;;;4.73;;
18042;SDS011;9146;48.074;11.968;2023-07-20T00:20:09;6.43;;;5.80;;
18042;SDS011;9146;48.074;11.968;2023-07-20T00:22:37;6.80;;;5.13;;
18042;SDS011;9146;48.074;11.968;2023-07-20T00:25:04;8.30;;;5.27;;
18042;SDS011;9146;48.074;11.968;2023-07-20T00:27:31;12.33;;;4.77;;
18042;SDS011;9146;48.074;11.968;2023-07-20T00:29:58;10.37;;;6.10;;
18042;SDS011;9146;48.074;11.968;2023-07-20T00:32:25;7.97;;;5.90;;
18042;SDS011;9146;48.074;11.968;2023-07-20T00:34:53;10.03;;;6.20;;
18042;SDS011;9146;48.074;11.968;2023-07-20T00:37:20;8.40;;;5.97;;
18042;SDS011;9146;48.074;11.968;2023-07-20T00:39:47;11.60;;;6.40;;
18042;SDS011;9146;48.074;11.968;2023-07-20T00:42:14;7.33;;;4.80;;
18042;SDS011;9146;48.074;11.968;2023-07-20T00:44:41;6.20;;;5.23;;
18042;SDS011;9146;48.074;11.968;2023-07-20T00:47:07;5.77;;;5.17;;
18042;SDS011;9146;48.074;11.968;2023-07-20T00:49:35;7.47;;;5.40;;
18042;SDS011;9146;48.074;11.968;2023-07-20T00:52:05;7.10;;;5.60;;
18042;SDS011;9146;48.074;11.968;2023-07-20T00:54:37;15.43;;;6.70;;
18042;SDS011;9146;48.074;11.968;2023-07-20T00:57:04;11.97;;;6.40;;
18042;SDS011;9146;48.074;11.968;2023-07-20T00:59:33;10.80;;;6.80;;
18042;SDS011;9146;48.074;11.968;2023-07-20T01:02:01;15.83;;;5.80;;
18042;SDS011;9146;48.074;11.968;2023-07-20T01:04:27;7.40;;;6.30;;
18042;SDS011;9146;48.074;11.968;2023-07-20T01:06:57;10.10;;;6.20;;
18042;SDS011;9146;48.074;11.968;2023-07-20T01:09:34;6.97;;;5.83;;
18042;SDS011;9146;48.074;11.968;2023-07-20T01:12:07;6.50;;;5.07;;
18042;SDS011;9146;48.074;11.968;2023-07-20T01:14:38;10.27;;;5.83;;
18042;SDS011;9146;48.074;11.968;2023-07-20T01:17:06;7.00;;;5.17;;
18042;SDS011;9146;48.074;11.968;2023-07-20T01:19:33;6.10;;;5.50;;
18042;SDS011;9146;48.074;11.968;2023-07-20T01:22:01;10.23;;;5.10;;
18042;SDS011;9146;48.074;11.968;2023-07-20T01:24:42;6.60;;;5.90;;
18042;SDS011;9146;48.074;11.968;2023-07-20T01:30:42;9.70;;;7.80;;
18042;SDS011;9146;48.074;11.968;2023-07-20T01:33:15;10.60;;;6.73;;
18042;SDS011;9146;48.074;11.968;2023-07-20T01:35:44;6.50;;;5.60;;
18042;SDS011;9146;48.074;11.968;2023-07-20T01:38:13;17.23;;;7.57;;
18042;SDS011;9146;48.074;11.968;2023-07-20T01:40:41;11.73;;;6.20;;
18042;SDS011;9146;48.074;11.968;2023-07-20T01:43:09;14.60;;;6.47;;
18042;SDS011;9146;48.074;11.968;2023-07-20T01:45:36;8.90;;;6.43;;
18042;SDS011;9146;48.074;11.968;2023-07-20T01:48:03;10.80;;;7.13;;
18042;SDS011;9146;48.074;11.968;2023-07-20T01:50:32;9.68;;;7.40;;
18042;SDS011;9146;48.074;11.968;2023-07-20T01:52:59;8.73;;;6.93;;
18042;SDS011;9146;48.074;11.968;2023-07-20T01:55:26;7.77;;;6.33;;
18042;SDS011;9146;48.074;11.968;2023-07-20T01:57:54;7.03;;;6.33;;
18042;SDS011;9146;48.074;11.968;2023-07-20T02:00:21;10.60;;;7.50;;
18042;SDS011;9146;48.074;11.968;2023-07-20T02:02:49;10.27;;;7.87;;
18042;SDS011;9146;48.074;11.968;2023-07-20T02:05:16;14.70;;;7.30;;
18042;SDS011;9146;48.074;11.968;2023-07-20T02:07:45;7.53;;;6.73;;
18042;SDS011;9146;48.074;11.968;2023-07-20T02:10:12;8.23;;;6.77;;
18042;SDS011;9146;48.074;11.968;2023-07-20T02:12:39;6.90;;;6.10;;
18042;SDS011;9146;48.074;11.968;2023-07-20T02:15:06;8.17;;;6.60;;
18042;SDS011;9146;48.074;11.968;2023-07-20T02:17:34;11.53;;;8.23;;
18042;SDS011;9146;48.074;11.968;2023-07-20T02:20:02;16.50;;;9.30;;
18042;SDS011;9146;48.074;11.968;2023-07-20T02:22:29;9.30;;;8.00;;
18042;SDS011;9146;48.074;11.968;2023-07-20T02:24:58;9.20;;;8.00;;
18042;SDS011;9146;48.074;11.968;2023-07-20T02:27:24;11.20;;;8.10;;
18042;SDS011;9146;48.074;11.968;2023-07-20T02:29:51;7.80;;;7.00;;
18042;SDS011;9146;48.074;11.968;2023-07-20T02:32:18;7.73;;;6.93;;
18042;SDS011;9146;48.074;11.968;2023-07-20T02:34:45;8.80;;;7.43;;
18042;SDS011;9146;48.074;11.968;2023-07-20T02:37:12;8.57;;;7.40;;
18042;SDS011;9146;48.074;11.968;2023-07-20T02:39:39;11.83;;;7.20;;
18042;SDS011;9146;48.074;11.968;2023-07-20T02:42:08;7.93;;;7.20;;
18042;SDS011;9146;48.074;11.968;2023-07-20T02:44:34;11.23;;;7.07;;
18042;SDS011;9146;48.074;11.968;2023-07-20T02:47:03;9.70;;;7.87;;
18042;SDS011;9146;48.074;11.968;2023-07-20T02:49:31;8.60;;;7.37;;
18042;SDS011;9146;48.074;11.968;2023-07-20T02:51:58;20.73;;;9.13;;
18042;SDS011;9146;48.074;11.968;2023-07-20T02:54:24;11.93;;;8.27;;
18042;SDS011;9146;48.074;11.968;2023-07-20T02:56:51;10.90;;;6.90;;
18042;SDS011;9146;48.074;11.968;2023-07-20T02:59:20;8.00;;;7.10;;
18042;SDS011;9146;48.074;11.968;2023-07-20T03:01:46;10.10;;;6.90;;
18042;SDS011;9146;48.074;11.968;2023-07-20T03:04:13;13.93;;;7.30;;
18042;SDS011;9146;48.074;11.968;2023-07-20T03:06:41;6.83;;;6.10;;
18042;SDS011;9146;48.074;11.968;2023-07-20T03:09:09;7.70;;;6.97;;
18042;SDS011;9146;48.074;11.968;2023-07-20T03:11:36;7.57;;;6.60;;
18042;SDS011;9146;48.074;11.968;2023-07-20T03:14:03;7.57;;;6.00;;
18042;SDS011;9146;48.074;11.968;2023-07-20T03:16:32;6.17;;;5.00;;
18042;SDS011;9146;48.074;11.968;2023-07-20T03:18:59;6.67;;;6.07;;
18042;SDS011;9146;48.074;11.968;2023-07-20T03:21:26;7.80;;;6.60;;
18042;SDS011;9146;48.074;11.968;2023-07-20T03:23:53;6.60;;;5.70;;
18042;SDS011;9146;48.074;11.968;2023-07-20T03:26:19;7.60;;;6.90;;
18042;SDS011;9146;48.074;11.968;2023-07-20T03:28:46;7.63;;;6.00;;
18042;SDS011;9146;48.074;11.968;2023-07-20T03:31:13;8.07;;;6.33;;
18042;SDS011;9146;48.074;11.968;2023-07-20T03:33:42;9.60;;;6.23;;
18042;SDS011;9146;48.074;11.968;2023-07-20T03:36:09;8.27;;;5.47;;
18042;SDS011;9146;48.074;11.968;2023-07-20T03:38:36;6.60;;;5.00;;
18042;SDS011;9146;48.074;11.968;2023-07-20T03:41:04;9.27;;;5.27;;
18042;SDS011;9146;48.074;11.968;2023-07-20T03:43:31;7.37;;;5.50;;
18042;SDS011;9146;48.074;11.968;2023-07-20T03:45:57;5.83;;;4.57;;
18042;SDS011;9146;48.074;11.968;2023-07-20T03:48:24;7.20;;;5.33;;
18042;SDS011;9146;48.074;11.968;2023-07-20T03:50:53;7.60;;;6.80;;
18042;SDS011;9146;48.074;11.968;2023-07-20T03:53:20;5.97;;;5.17;;
18042;SDS011;9146;48.074;11.968;2023-07-20T03:55:47;7.77;;;5.33;;
18042;SDS011;9146;48.074;11.968;2023-07-20T03:58:15;6.33;;;5.77;;
18042;SDS011;9146;48.074;11.968;2023-07-20T04:00:44;6.80;;;6.10;;
18042;SDS011;9146;48.074;11.968;2023-07-20T04:03:11;7.63;;;6.10;;
18042;SDS011;9146;48.074;11.968;2023-07-20T04:05:38;6.13;;;5.47;;
18042;SDS011;9146;48.074;11.968;2023-07-20T04:08:07;8.27;;;5.30;;
18042;SDS011;9146;48.074;11.968;2023-07-20T04:10:34;7.90;;;5.10;;
18042;SDS011;9146;48.074;11.968;2023-07-20T04:13:01;6.50;;;5.00;;
18042;SDS011;9146;48.074;11.968;2023-07-20T04:15:28;5.70;;;4.67;;
18042;SDS011;9146;48.074;11.968;2023-07-20T04:17:55;6.20;;;5.10;;
18042;SDS011;9146;48.074;11.968;2023-07-20T04:20:22;8.17;;;5.27;;
18042;SDS011;9146;48.074;11.968;2023-07-20T04:22:49;5.20;;;4.73;;
18042;SDS011;9146;48.074;11.968;2023-07-20T04:25:18;6.30;;;4.40;;
18042;SDS011;9146;48.074;11.968;2023-07-20T04:27:45;6.33;;;5.10;;
18042;SDS011;9146;48.074;11.968;2023-07-20T04:30:12;10.33;;;6.57;;
18042;SDS011;9146;48.074;11.968;2023-07-20T04:32:40;7.60;;;5.03;;
18042;SDS011;9146;48.074;11.968;2023-07-20T04:35:09;4.83;;;4.33;;
18042;SDS011;9146;48.074;11.968;2023-07-20T04:37:36;4.43;;;4.03;;
18042;SDS011;9146;48.074;11.968;2023-07-20T04:40:03;7.97;;;3.93;;
18042;SDS011;9146;48.074;11.968;2023-07-20T04:42:32;4.33;;;3.80;;
18042;SDS011;9146;48.074;11.968;2023-07-20T04:44:59;5.00;;;3.73;;
18042;SDS011;9146;48.074;11.968;2023-07-20T04:47:26;5.17;;;4.13;;
18042;SDS011;9146;48.074;11.968;2023-07-20T04:49:53;3.43;;;3.13;;
18042;SDS011;9146;48.074;11.968;2023-07-20T04:52:20;3.47;;;3.20;;
18042;SDS011;9146;48.074;11.968;2023-07-20T04:54:48;6.10;;;4.20;;
18042;SDS011;9146;48.074;11.968;2023-07-20T04:57:15;4.43;;;3.40;;
18042;SDS011;9146;48.074;11.968;2023-07-20T04:59:43;5.50;;;3.27;;
18042;SDS011;9146;48.074;11.968;2023-07-20T05:02:10;5.00;;;3.70;;
18042;SDS011;9146;48.074;11.968;2023-07-20T05:04:37;3.70;;;3.40;;
18042;SDS011;9146;48.074;11.968;2023-07-20T05:07:04;3.17;;;2.90;;
18042;SDS011;9146;48.074;11.968;2023-07-20T05:09:31;5.13;;;3.70;;
18042;SDS011;9146;48.074;11.968;2023-07-20T05:11:58;4.50;;;3.80;;
18042;SDS011;9146;48.074;11.968;2023-07-20T05:14:25;6.57;;;3.60;;
18042;SDS011;9146;48.074;11.968;2023-07-20T05:16:53;4.17;;;3.67;;
18042;SDS011;9146;48.074;11.968;2023-07-20T05:19:20;7.13;;;3.30;;
18042;SDS011;9146;48.074;11.968;2023-07-20T05:21:47;3.53;;;3.20;;
18042;SDS011;9146;48.074;11.968;2023-07-20T05:24:14;3.13;;;2.83;;
18042;SDS011;9146;48.074;11.968;2023-07-20T05:26:41;5.20;;;3.50;;
18042;SDS011;9146;48.074;11.968;2023-07-20T05:29:07;3.33;;;3.03;;
18042;SDS011;9146;48.074;11.968;2023-07-20T05:31:34;9.73;;;3.60;;
18042;SDS011;9146;48.074;11.968;2023-07-20T05:34:03;3.43;;;3.10;;
18042;SDS011;9146;48.074;11.968;2023-07-20T05:36:29;4.63;;;2.83;;
18042;SDS011;9146;48.074;11.968;2023-07-20T05:38:57;3.40;;;3.20;;
18042;SDS011;9146;48.074;11.968;2023-07-20T05:41:24;3.03;;;2.70;;
18042;SDS011;9146;48.074;11.968;2023-07-20T05:43:50;6.00;;;2.97;;
18042;SDS011;9146;48.074;11.968;2023-07-20T05:46:17;3.00;;;2.70;;
18042;SDS011;9146;48.074;11.968;2023-07-20T05:48:44;3.93;;;2.87;;
18042;SDS011;9146;48.074;11.968;2023-07-20T05:51:13;3.93;;;3.20;;
18042;SDS011;9146;48.074;11.968;2023-07-20T05:53:40;3.33;;;3.03;;
18042;SDS011;9146;48.074;11.968;2023-07-20T05:56:07;3.33;;;3.03;;
18042;SDS011;9146;48.074;11.968;2023-07-20T05:58:35;3.80;;;3.03;;
18042;SDS011;9146;48.074;11.968;2023-07-20T06:01:03;3.30;;;3.00;;
18042;SDS011;9146;48.074;11.968;2023-07-20T06:03:31;3.83;;;2.97;;
18042;SDS011;9146;48.074;11.968;2023-07-20T06:05:59;4.80;;;2.73;;
18042;SDS011;9146;48.074;11.968;2023-07-20T06:08:28;4.50;;;3.20;;
18042;SDS011;9146;48.074;11.968;2023-07-20T06:10:55;3.73;;;3.00;;
18042;SDS011;9146;48.074;11.968;2023-07-20T06:13:22;3.37;;;2.90;;
18042;SDS011;9146;48.074;11.968;2023-07-20T06:15:49;2.80;;;2.60;;
18042;SDS011;9146;48.074;11.968;2023-07-20T06:18:22;4.57;;;2.70;;
18042;SDS011;9146;48.074;11.968;2023-07-20T06:20:49;3.93;;;3.23;;
18042;SDS011;9146;48.074;11.968;2023-07-20T06:23:16;2.97;;;2.77;;
18042;SDS011;9146;48.074;11.968;2023-07-20T06:25:45;4.13;;;2.40;;
18042;SDS011;9146;48.074;11.968;2023-07-20T06:28:12;4.13;;;2.80;;
18042;SDS011;9146;48.074;11.968;2023-07-20T06:30:39;2.50;;;2.37;;
18042;SDS011;9146;48.074;11.968;2023-07-20T06:33:06;4.97;;;3.27;;
18042;SDS011;9146;48.074;11.968;2023-07-20T06:35:33;3.60;;;2.80;;
18042;SDS011;9146;48.074;11.968;2023-07-20T06:38:00;4.13;;;3.37;;
18042;SDS011;9146;48.074;11.968;2023-07-20T06:40:29;3.23;;;2.97;;
18042;SDS011;9146;48.074;11.968;2023-07-20T06:42:57;3.03;;;2.37;;
18042;SDS011;9146;48.074;11.968;2023-07-20T06:45:24;3.83;;;3.07;;
18042;SDS011;9146;48.074;11.968;2023-07-20T06:47:52;3.43;;;2.77;;
18042;SDS011;9146;48.074;11.968;2023-07-20T06:50:19;4.23;;;2.90;;
18042;SDS011;9146;48.074;11.968;2023-07-20T06:52:45;2.43;;;2.20;;
18042;SDS011;9146;48.074;11.968;2023-07-20T06:55:13;3.13;;;2.70;;
18042;SDS011;9146;48.074;11.968;2023-07-20T06:57:40;3.10;;;2.90;;
18042;SDS011;9146;48.074;11.968;2023-07-20T07:00:10;2.53;;;2.33;;
18042;SDS011;9146;48.074;11.968;2023-07-20T07:02:38;4.70;;;2.73;;
18042;SDS011;9146;48.074;11.968;2023-07-20T07:05:05;3.70;;;3.27;;
18042;SDS011;9146;48.074;11.968;2023-07-20T07:07:32;4.30;;;2.93;;
18042;SDS011;9146;48.074;11.968;2023-07-20T07:09:59;4.00;;;2.40;;
18042;SDS011;9146;48.074;11.968;2023-07-20T07:12:29;3.80;;;2.60;;
18042;SDS011;9146;48.074;11.968;2023-07-20T07:14:57;2.47;;;2.27;;
18042;SDS011;9146;48.074;11.968;2023-07-20T07:17:26;5.30;;;2.50;;
18042;SDS011;9146;48.074;11.968;2023-07-20T07:19:54;2.83;;;2.60;;
18042;SDS011;9146;48.074;11.968;2023-07-20T07:22:22;2.60;;;2.40;;
18042;SDS011;9146;48.074;11.968;2023-07-20T07:24:49;4.60;;;2.70;;
18042;SDS011;9146;48.074;11.968;2023-07-20T07:27:16;2.63;;;2.43;;
18042;SDS011;9146;48.074;11.968;2023-07-20T07:29:43;3.83;;;2.67;;
18042;SDS011;9146;48.074;11.968;2023-07-20T07:32:10;2.37;;;2.17;;
18042;SDS011;9146;48.074;11.968;2023-07-20T07:34:38;2.80;;;2.60;;
18042;SDS011;9146;48.074;11.968;2023-07-20T07:37:05;4.10;;;2.50;;
18042;SDS011;9146;48.074;11.968;2023-07-20T07:39:32;3.07;;;2.73;;
18042;SDS011;9146;48.074;11.968;2023-07-20T07:41:59;3.30;;;2.63;;
18042;SDS011;9146;48.074;11.968;2023-07-20T07:44:26;3.20;;;2.60;;
18042;SDS011;9146;48.074;11.968;2023-07-20T07:46:53;3.13;;;2.83;;
18042;SDS011;9146;48.074;11.968;2023-07-20T07:49:20;2.40;;;2.27;;
18042;SDS011;9146;48.074;11.968;2023-07-20T07:51:48;5.40;;;2.80;;
18042;SDS011;9146;48.074;11.968;2023-07-20T07:54:15;2.60;;;2.40;;
18042;SDS011;9146;48.074;11.968;2023-07-20T07:56:42;5.90;;;2.43;;
18042;SDS011;9146;48.074;11.968;2023-07-20T07:59:09;2.57;;;2.37;;
18042;SDS011;9146;48.074;11.968;2023-07-20T08:01:36;3.23;;;2.60;;
18042;SDS011;9146;48.074;11.968;2023-07-20T08:04:03;4.20;;;2.97;;
18042;SDS011;9146;48.074;11.968;2023-07-20T08:06:30;2.70;;;2.50;;
18042;SDS011;9146;48.074;11.968;2023-07-20T08:08:59;3.40;;;2.67;;
18042;SDS011;9146;48.074;11.968;2023-07-20T08:11:27;4.23;;;2.40;;
18042;SDS011;9146;48.074;11.968;2023-07-20T08:13:55;2.57;;;2.37;;
18042;SDS011;9146;48.074;11.968;2023-07-20T08:16:22;2.50;;;2.30;;
18042;SDS011;9146;48.074;11.968;2023-07-20T08:18:49;4.50;;;2.13;;
18042;SDS011;9146;48.074;11.968;2023-07-20T08:21:16;2.80;;;2.10;;
18042;SDS011;9146;48.074;11.968;2023-07-20T08:23:43;4.30;;;2.87;;
18042;SDS011;9146;48.074;11.968;2023-07-20T08:26:12;2.77;;;2.33;;
18042;SDS011;9146;48.074;11.968;2023-07-20T08:28:38;5.57;;;2.10;;
18042;SDS011;9146;48.074;11.968;2023-07-20T08:31:05;2.73;;;2.47;;
18042;SDS011;9146;48.074;11.968;2023-07-20T08:33:32;5.60;;;2.50;;
18042;SDS011;9146;48.074;11.968;2023-07-20T08:36:00;6.73;;;2.53;;
18042;SDS011;9146;48.074;11.968;2023-07-20T08:38:28;3.30;;;2.73;;
18042;SDS011;9146;48.074;11.968;2023-07-20T08:40:55;5.00;;;2.67;;
18042;SDS011;9146;48.074;11.968;2023-07-20T08:43:26;7.20;;;2.30;;
18042;SDS011;9146;48.074;11.968;2023-07-20T08:45:54;4.03;;;2.23;;
18042;SDS011;9146;48.074;11.968;2023-07-20T08:48:22;4.43;;;2.33;;
18042;SDS011;9146;48.074;11.968;2023-07-20T08:50:50;4.70;;;2.67;;
18042;SDS011;9146;48.074;11.968;2023-07-20T08:53:18;2.30;;;2.10;;
18042;SDS011;9146;48.074;11.968;2023-07-20T08:55:45;3.30;;;2.33;;
18042;SDS011;9146;48.074;11.968;2023-07-20T08:58:16;3.20;;;2.00;;
18042;SDS011;9146;48.074;11.968;2023-07-20T09:00:45;3.23;;;2.67;;
18042;SDS011;9146;48.074;11.968;2023-07-20T09:03:17;2.47;;;2.27;;
18042;SDS011;9146;48.074;11.968;2023-07-20T09:05:44;2.70;;;2.13;;
18042;SDS011;9146;48.074;11.968;2023-07-20T09:08:11;3.50;;;2.23;;
18042;SDS011;9146;48.074;11.968;2023-07-20T09:10:38;3.73;;;2.00;;
18042;SDS011;9146;48.074;11.968;2023-07-20T09:13:05;3.13;;;2.50;;
18042;SDS011;9146;48.074;11.968;2023-07-20T09:15:32;2.60;;;2.37;;
18042;SDS011;9146;48.074;11.968;2023-07-20T09:18:02;3.80;;;2.60;;
18042;SDS011;9146;48.074;11.968;2023-07-20T09:20:30;8.93;;;2.40;;
18042;SDS011;9146;48.074;11.968;2023-07-20T09:23:00;3.20;;;2.83;;
18042;SDS011;9146;48.074;11.968;2023-07-20T09:25:31;3.87;;;2.47;;
18042;SDS011;9146;48.074;11.968;2023-07-20T09:28:01;3.73;;;2.37;;
18042;SDS011;9146;48.074;11.968;2023-07-20T09:30:29;8.70;;;2.67;;
18042;SDS011;9146;48.074;11.968;2023-07-20T09:32:56;4.00;;;2.40;;
18042;SDS011;9146;48.074;11.968;2023-07-20T09:35:25;2.60;;;2.13;;
18042;SDS011;9146;48.074;11.968;2023-07-20T09:37:54;3.13;;;2.20;;
18042;SDS011;9146;48.074;11.968;2023-07-20T09:40:23;8.47;;;2.60;;
18042;SDS011;9146;48.074;11.968;2023-07-20T09:42:51;6.73;;;2.73;;
18042;SDS011;9146;48.074;11.968;2023-07-20T09:45:27;2.60;;;2.40;;
18042;SDS011;9146;48.074;11.968;2023-07-20T09:48:01;4.07;;;2.93;;
18042;SDS011;9146;48.074;11.968;2023-07-20T09:50:31;3.50;;;2.77;;
18042;SDS011;9146;48.074;11.968;2023-07-20T09:52:58;2.50;;;2.30;;
18042;SDS011;9146;48.074;11.968;2023-07-20T09:55:26;2.70;;;2.20;;
18042;SDS011;9146;48.074;11.968;2023-07-20T09:57:53;2.70;;;2.50;;
18042;SDS011;9146;48.074;11.968;2023-07-20T10:00:21;4.20;;;2.30;;
18042;SDS011;9146;48.074;11.968;2023-07-20T10:02:48;2.93;;;2.63;;
18042;SDS011;9146;48.074;11.968;2023-07-20T10:05:17;3.23;;;2.40;;
18042;SDS011;9146;48.074;11.968;2023-07-20T10:07:48;3.00;;;2.33;;
18042;SDS011;9146;48.074;11.968;2023-07-20T10:10:16;4.90;;;2.77;;
18042;SDS011;9146;48.074;11.968;2023-07-20T10:12:44;4.80;;;2.57;;
18042;SDS011;9146;48.074;11.968;2023-07-20T10:15:15;2.57;;;2.37;;
18042;SDS011;9146;48.074;11.968;2023-07-20T10:17:59;2.60;;;2.40;;
18042;SDS011;9146;48.074;11.968;2023-07-20T10:20:33;3.97;;;2.50;;
18042;SDS011;9146;48.074;11.968;2023-07-20T10:23:04;2.70;;;2.50;;
18042;SDS011;9146;48.074;11.968;2023-07-20T10:25:31;1.80;;;1.70;;
18042;SDS011;9146;48.074;11.968;2023-07-20T10:28:02;3.00;;;2.17;;
18042;SDS011;9146;48.074;11.968;2023-07-20T10:30:31;2.80;;;2.57;;
18042;SDS011;9146;48.074;11.968;2023-07-20T10:32:59;2.60;;;2.40;;
18042;SDS011;9146;48.074;11.968;2023-07-20T10:35:28;2.80;;;2.60;;
18042;SDS011;9146;48.074;11.968;2023-07-20T10:37:56;3.40;;;2.40;;
18042;SDS011;9146;48.074;11.968;2023-07-20T10:40:29;2.67;;;2.30;;
18042;SDS011;9146;48.074;11.968;2023-07-20T10:43:01;2.33;;;2.10;;
18042;SDS011;9146;48.074;11.968;2023-07-20T10:45:39;3.40;;;2.13;;
18042;SDS011;9146;48.074;11.968;2023-07-20T10:48:14;3.50;;;1.97;;
18042;SDS011;9146;48.074;11.968;2023-07-20T10:50:42;2.40;;;2.20;;
18042;SDS011;9146;48.074;11.968;2023-07-20T10:53:10;4.10;;;2.57;;
18042;SDS011;9146;48.074;11.968;2023-07-20T10:55:39;5.13;;;2.57;;
18042;SDS011;9146;48.074;11.968;2023-07-20T10:58:15;2.20;;;1.80;;
18042;SDS011;9146;48.074;11.968;2023-07-20T11:00:58;3.37;;;2.80;;
18042;SDS011;9146;48.074;11.968;2023-07-20T11:03:29;2.40;;;2.20;;
18042;SDS011;9146;48.074;11.968;2023-07-20T11:05:57;2.53;;;2.30;;
18042;SDS011;9146;48.074;11.968;2023-07-20T11:08:38;2.37;;;2.17;;
18042;SDS011;9146;48.074;11.968;2023-07-20T11:11:23;4.97;;;2.43;;
18042;SDS011;9146;48.074;11.968;2023-07-20T11:13:55;2.60;;;2.17;;
18042;SDS011;9146;48.074;11.968;2023-07-20T11:16:33;4.87;;;2.60;;
18042;SDS011;9146;48.074;11.968;2023-07-20T11:19:04;7.73;;;2.13;;
18042;SDS011;9146;48.074;11.968;2023-07-20T11:21:36;2.07;;;1.90;;
18042;SDS011;9146;48.074;11.968;2023-07-20T11:24:04;2.80;;;2.53;;
18042;SDS011;9146;48.074;11.968;2023-07-20T11:29:16;3.30;;;2.60;;
18042;SDS011;9146;48.074;11.968;2023-07-20T11:31:44;10.70;;;2.87;;
18042;SDS011;9146;48.074;11.968;2023-07-20T11:34:13;2.47;;;2.27;;
18042;SDS011;9146;48.074;11.968;2023-07-20T11:36:41;2.63;;;2.20;;
18042;SDS011;9146;48.074;11.968;2023-07-20T11:39:12;4.07;;;2.50;;
18042;SDS011;9146;48.074;11.968;2023-07-20T11:41:43;3.30;;;3.00;;
18042;SDS011;9146;48.074;11.968;2023-07-20T11:44:13;3.70;;;2.40;;
18042;SDS011;9146;48.074;11.968;2023-07-20T11:46:42;3.40;;;2.17;;
18042;SDS011;9146;48.074;11.968;2023-07-20T11:49:10;2.40;;;2.20;;
18042;SDS011;9146;48.074;11.968;2023-07-20T11:51:38;3.33;;;2.53;;
18042;SDS011;9146;48.074;11.968;2023-07-20T11:54:07;3.00;;;2.27;;
18042;SDS011;9146;48.074;11.968;2023-07-20T11:56:35;16.40;;;2.50;;
18042;SDS011;9146;48.074;11.968;2023-07-20T11:59:02;2.60;;;2.40;;
18042;SDS011;9146;48.074;11.968;2023-07-20T12:01:30;5.30;;;2.90;;
18042;SDS011;9146;48.074;11.968;2023-07-20T12:04:00;2.50;;;2.30;;
18042;SDS011;9146;48.074;11.968;2023-07-20T12:06:28;5.37;;;2.80;;
18042;SDS011;9146;48.074;11.968;2023-07-20T12:08:55;3.20;;;2.50;;
18042;SDS011;9146;48.074;11.968;2023-07-20T12:11:30;2.93;;;2.20;;
18042;SDS011;9146;48.074;11.968;2023-07-20T12:13:58;3.33;;;2.83;;
18042;SDS011;9146;48.074;11.968;2023-07-20T12:16:26;2.60;;;2.40;;
18042;SDS011;9146;48.074;11.968;2023-07-20T12:19:00;2.13;;;2.03;;
18042;SDS011;9146;48.074;11.968;2023-07-20T12:21:28;2.63;;;2.27;;
18042;SDS011;9146;48.074;11.968;2023-07-20T12:23:55;7.93;;;2.60;;
18042;SDS011;9146;48.074;11.968;2023-07-20T12:26:23;4.50;;;2.50;;
18042;SDS011;9146;48.074;11.968;2023-07-20T12:28:51;3.63;;;2.73;;
18042;SDS011;9146;48.074;11.968;2023-07-20T12:31:18;3.93;;;2.53;;
18042;SDS011;9146;48.074;11.968;2023-07-20T12:33:46;3.07;;;2.67;;
18042;SDS011;9146;48.074;11.968;2023-07-20T12:36:14;4.53;;;2.80;;
18042;SDS011;9146;48.074;11.968;2023-07-20T12:38:42;2.63;;;2.23;;
18042;SDS011;9146;48.074;11.968;2023-07-20T12:41:09;2.70;;;2.50;;
18042;SDS011;9146;48.074;11.968;2023-07-20T12:43:38;4.90;;;2.77;;
18042;SDS011;9146;48.074;11.968;2023-07-20T12:46:06;3.73;;;2.30;;
18042;SDS011;9146;48.074;11.968;2023-07-20T12:48:33;3.50;;;2.30;;
18042;SDS011;9146;48.074;11.968;2023-07-20T12:51:02;2.60;;;2.40;;
18042;SDS011;9146;48.074;11.968;2023-07-20T12:53:30;3.33;;;2.40;;
18042;SDS011;9146;48.074;11.968;2023-07-20T12:55:58;2.63;;;2.30;;
18042;SDS011;9146;48.074;11.968;2023-07-20T12:58:25;3.57;;;2.40;;
18042;SDS011;9146;48.074;11.968;2023-07-20T13:00:52;3.70;;;2.80;;
18042;SDS011;9146;48.074;11.968;2023-07-20T13:03:19;3.50;;;2.23;;
18042;SDS011;9146;48.074;11.968;2023-07-20T13:05:46;3.87;;;2.23;;
18042;SDS011;9146;48.074;11.968;2023-07-20T13:08:13;2.87;;;2.57;;
18042;SDS011;9146;48.074;11.968;2023-07-20T13:10:43;2.63;;;2.43;;
18042;SDS011;9146;48.074;11.968;2023-07-20T13:13:10;2.73;;;2.50;;
18042;SDS011;9146;48.074;11.968;2023-07-20T13:15:41;2.63;;;2.37;;
18042;SDS011;9146;48.074;11.968;2023-07-20T13:18:08;2.80;;;2.33;;
18042;SDS011;9146;48.074;11.968;2023-07-20T13:20:35;5.03;;;3.20;;
18042;SDS011;9146;48.074;11.968;2023-07-20T13:23:04;3.73;;;2.97;;
18042;SDS011;9146;48.074;11.968;2023-07-20T13:25:32;2.37;;;2.13;;
18042;SDS011;9146;48.074;11.968;2023-07-20T13:28:00;3.40;;;2.70;;
18042;SDS011;9146;48.074;11.968;2023-07-20T13:30:27;3.33;;;2.53;;
18042;SDS011;9146;48.074;11.968;2023-07-20T13:32:54;2.50;;;2.30;;
18042;SDS011;9146;48.074;11.968;2023-07-20T13:35:21;2.77;;;2.50;;
18042;SDS011;9146;48.074;11.968;2023-07-20T13:37:48;4.63;;;2.60;;
18042;SDS011;9146;48.074;11.968;2023-07-20T13:40:15;2.63;;;2.43;;
18042;SDS011;9146;48.074;11.968;2023-07-20T13:42:43;6.93;;;2.40;;
18042;SDS011;9146;48.074;11.968;2023-07-20T13:45:12;2.30;;;2.03;;
18042;SDS011;9146;48.074;11.968;2023-07-20T13:47:39;5.33;;;2.40;;
18042;SDS011;9146;48.074;11.968;2023-07-20T13:50:06;4.43;;;2.33;;
18042;SDS011;9146;48.074;11.968;2023-07-20T13:52:33;2.40;;;2.20;;
18042;SDS011;9146;48.074;11.968;2023-07-20T13:55:02;2.77;;;2.57;;
18042;SDS011;9146;48.074;11.968;2023-07-20T13:57:29;5.80;;;2.57;;
18042;SDS011;9146;48.074;11.968;2023-07-20T13:59:59;3.20;;;2.20;;
18042;SDS011;9146;48.074;11.968;2023-07-20T14:02:28;2.70;;;2.50;;
18042;SDS011;9146;48.074;11.968;2023-07-20T14:04:55;2.20;;;2.10;;
18042;SDS011;9146;48.074;11.968;2023-07-20T14:07:22;4.23;;;2.23;;
18042;SDS011;9146;48.074;11.968;2023-07-20T14:09:49;2.73;;;2.40;;
18042;SDS011;9146;48.074;11.968;2023-07-20T14:12:16;3.70;;;2.40;;
18042;SDS011;9146;48.074;11.968;2023-07-20T14:14:43;3.70;;;2.40;;
18042;SDS011;9146;48.074;11.968;2023-07-20T14:17:10;2.37;;;2.17;;
18042;SDS011;9146;48.074;11.968;2023-07-20T14:19:39;2.43;;;2.23;;
18042;SDS011;9146;48.074;11.968;2023-07-20T14:22:06;2.40;;;2.10;;
18042;SDS011;9146;48.074;11.968;2023-07-20T14:24:33;2.40;;;2.13;;
18042;SDS011;9146;48.074;11.968;2023-07-20T14:27:00;3.47;;;2.90;;
18042;SDS011;9146;48.074;11.968;2023-07-20T14:29:27;2.50;;;2.30;;
18042;SDS011;9146;48.074;11.968;2023-07-20T14:31:57;2.53;;;2.20;;
18042;SDS011;9146;48.074;11.968;2023-07-20T14:34:24;2.60;;;2.33;;
18042;SDS011;9146;48.074;11.968;2023-07-20T14:36:53;5.03;;;2.60;;
18042;SDS011;9146;48.074;11.968;2023-07-20T14:39:20;7.40;;;2.00;;
18042;SDS011;9146;48.074;11.968;2023-07-20T14:41:47;4.20;;;2.20;;
18042;SDS011;9146;48.074;11.968;2023-07-20T14:44:16;1.97;;;1.87;;
18042;SDS011;9146;48.074;11.968;2023-07-20T14:46:42;2.37;;;2.20;;
18042;SDS011;9146;48.074;11.968;2023-07-20T14:49:09;3.80;;;1.93;;
18042;SDS011;9146;48.074;11.968;2023-07-20T14:51:36;2.57;;;2.20;;
18042;SDS011;9146;48.074;11.968;2023-07-20T14:54:09;2.43;;;2.20;;
18042;SDS011;9146;48.074;11.968;2023-07-20T14:56:37;2.17;;;1.90;;